Time;durP1;ratioP1;P1;durP2;ratioP2;P2;SDS_P1;SDS_P2;PMS_P1;PMS_P2;Temp;Humidity;BMP_temperature;BMP_pressure;BME280_temperature;BME280_humidity;BME280_pressure;Samples;Min_cycle;Max_cycle;Signal;HPM_P1;HPM_P2
2022/04/26 03:36:54;;;;;;;22.88;16.30;;;6.70;88.60;;;;;;5063655;28;20075;-41
2022/04/26 03:39:21;;;;;;;24.33;16.55;;;6.70;88.70;;;;;;5074196;28;20089;-42
2022/04/26 03:41:50;;;;;;;24.20;19.17;;;6.70;88.80;;;;;;5075150;28;20032;-41
2022/04/26 03:44:20;;;;;;;26.27;19.63;;;6.70;88.90;;;;;;5039481;28;20382;-42
2022/04/26 03:46:47;;;;;;;27.27;20.23;;;6.80;89.10;;;;;;5056564;28;20031;-43
2022/04/26 03:49:12;;;;;;;28.13;21.25;;;6.80;89.00;;;;;;5073053;28;20024;-42
2022/04/26 03:51:39;;;;;;;27.75;21.98;;;6.80;88.90;;;;;;5075192;28;20020;-41
2022/04/26 03:54:06;;;;;;;33.35;23.27;;;6.80;88.90;;;;;;5071672;28;20065;-42
2022/04/26 03:56:32;;;;;;;30.77;24.17;;;6.80;88.80;;;;;;5075067;28;20309;-42
2022/04/26 03:58:59;;;;;;;27.48;22.13;;;6.70;88.70;;;;;;5073138;28;20469;-41
2022/04/26 04:01:29;;;;;;;38.22;23.77;;;6.70;88.70;;;;;;5073487;28;20037;-44
2022/04/26 04:03:55;;;;;;;31.65;22.73;;;6.60;88.80;;;;;;5072968;28;20186;-46
2022/04/26 04:06:23;;;;;;;27.20;21.35;;;6.60;88.70;;;;;;5057024;28;20177;-41
2022/04/26 04:08:50;;;;;;;31.00;22.90;;;6.50;88.80;;;;;;5070563;28;20086;-43
2022/04/26 04:11:16;;;;;;;37.05;25.92;;;6.50;88.80;;;;;;5074607;28;20025;-42
2022/04/26 04:13:43;;;;;;;35.78;27.98;;;6.60;89.10;;;;;;5073302;28;20033;-41
2022/04/26 04:16:12;;;;;;;37.13;25.27;;;6.60;89.20;;;;;;5056688;28;20028;-42
2022/04/26 04:21:24;;;;;;;38.50;26.83;;;6.60;89.20;;;;;;5074395;28;20043;-42
2022/04/26 04:23:51;;;;;;;37.83;27.38;;;6.70;89.40;;;;;;5072615;28;20174;-42
2022/04/26 04:26:17;;;;;;;31.42;26.02;;;6.70;89.30;;;;;;5074294;28;20060;-41
2022/04/26 04:28:45;;;;;;;36.22;26.50;;;6.70;89.30;;;;;;5072572;28;20036;-42
2022/04/26 04:31:12;;;;;;;36.33;26.73;;;6.70;89.20;;;;;;5074362;28;20456;-41
2022/04/26 04:33:43;;;;;;;35.47;26.67;;;6.70;89.10;;;;;;5072527;28;20074;-43
2022/04/26 04:36:09;;;;;;;38.28;28.80;;;6.70;89.20;;;;;;5074193;28;20029;-44
2022/04/26 04:38:35;;;;;;;38.53;27.38;;;6.70;89.30;;;;;;5072638;28;20032;-42
2022/04/26 04:41:02;;;;;;;38.55;28.80;;;6.70;89.20;;;;;;5071691;28;20087;-42
2022/04/26 04:43:29;;;;;;;31.67;25.50;;;6.70;89.20;;;;;;5056517;28;20029;-43
2022/04/26 04:45:57;;;;;;;36.80;27.13;;;6.80;89.40;;;;;;5072484;28;20063;-42
2022/04/26 04:48:24;;;;;;;36.63;25.50;;;6.90;89.30;;;;;;5074257;28;20310;-42
2022/04/26 04:50:50;;;;;;;32.42;20.35;;;6.90;89.40;;;;;;5068343;28;20058;-42
2022/04/26 04:53:21;;;;;;;22.85;17.48;;;7.00;89.40;;;;;;5071030;28;20652;-42
2022/04/26 04:55:48;;;;;;;25.10;16.65;;;7.20;89.50;;;;;;5073749;28;20349;-43
2022/04/26 04:58:14;;;;;;;20.98;13.13;;;7.30;89.50;;;;;;5069674;28;20033;-41
2022/04/26 05:00:41;;;;;;;27.20;12.98;;;7.50;89.50;;;;;;5069484;28;20029;-41
2022/04/26 05:03:07;;;;;;;23.77;11.18;;;7.70;89.40;;;;;;5071115;28;20043;-42
2022/04/26 05:05:35;;;;;;;20.95;12.90;;;7.90;89.10;;;;;;5071749;28;20350;-42
2022/04/26 05:08:02;;;;;;;22.92;13.85;;;8.00;88.80;;;;;;5055991;28;20066;-42
2022/04/26 05:10:33;;;;;;;19.35;14.38;;;8.20;88.40;;;;;;5072270;28;20056;-41
2022/04/26 05:13:00;;;;;;;19.60;16.83;;;8.50;88.00;;;;;;5071052;28;20161;-42
2022/04/26 05:15:26;;;;;;;24.58;17.75;;;8.90;87.10;;;;;;5073332;28;20031;-42
2022/04/26 05:17:52;;;;;;;22.15;17.92;;;9.20;86.50;;;;;;5062278;28;20292;-41
2022/04/26 05:20:21;;;;;;;19.75;15.32;;;9.50;86.00;;;;;;5065500;28;20028;-43
2022/04/26 05:25:40;;;;;;;13.77;11.13;;;9.70;82.90;;;;;;5072411;28;20098;-41
2022/04/26 05:28:11;;;;;;;11.80;9.90;;;9.90;82.70;;;;;;5073451;28;20021;-42
2022/04/26 05:30:37;;;;;;;14.30;9.30;;;10.00;82.20;;;;;;5071634;28;20085;-44
2022/04/26 05:33:04;;;;;;;12.15;9.40;;;10.10;81.20;;;;;;5073376;28;20539;-41
2022/04/26 05:35:31;;;;;;;13.85;7.32;;;10.20;81.30;;;;;;5071593;28;20032;-43
2022/04/26 05:37:58;;;;;;;18.23;6.38;;;10.30;81.10;;;;;;5070683;28;20032;-41
2022/04/26 05:40:25;;;;;;;11.18;4.88;;;10.20;84.10;;;;;;5071567;28;20028;-41
2022/04/26 05:42:53;;;;;;;12.40;5.70;;;10.00;84.90;;;;;;5073159;28;20365;-42
2022/04/26 05:45:23;;;;;;;11.48;6.13;;;10.00;85.40;;;;;;5065669;28;20047;-46
2022/04/26 05:47:50;;;;;;;12.60;6.05;;;9.90;85.70;;;;;;5073168;28;20349;-42
2022/04/26 05:50:16;;;;;;;20.17;7.15;;;9.60;86.30;;;;;;5071145;28;20449;-43
2022/04/26 05:52:42;;;;;;;12.35;6.38;;;9.60;86.30;;;;;;5055452;28;20100;-43
2022/04/26 05:55:09;;;;;;;12.18;6.22;;;9.50;86.50;;;;;;5069945;28;20033;-44
2022/04/26 05:57:40;;;;;;;16.83;5.68;;;9.40;86.30;;;;;;5055596;28;20594;-42
2022/04/26 06:00:15;;;;;;;15.93;7.07;;;9.40;86.40;;;;;;5071343;28;20492;-42
2022/04/26 06:02:42;;;;;;;15.88;7.68;;;9.20;86.50;;;;;;5072092;28;20028;-42
2022/04/26 06:05:09;;;;;;;14.70;6.88;;;9.20;86.80;;;;;;5071716;28;20050;-42
2022/04/26 06:07:36;;;;;;;17.15;8.10;;;9.10;87.00;;;;;;5072902;28;20024;-42
2022/04/26 06:10:04;;;;;;;15.98;7.00;;;9.10;87.20;;;;;;5073904;28;20028;-43
2022/04/26 06:12:31;;;;;;;16.13;6.70;;;9.20;87.80;;;;;;5092921;28;20032;-42
2022/04/26 06:14:59;;;;;;;12.00;6.78;;;9.40;87.70;;;;;;5073378;28;20138;-43
2022/04/26 06:17:27;;;;;;;11.77;8.48;;;9.50;87.50;;;;;;5065439;28;20028;-42
2022/04/26 06:19:54;;;;;;;13.90;6.78;;;9.70;87.20;;;;;;5058802;28;20043;-45
2022/04/26 06:22:21;;;;;;;15.50;5.85;;;9.70;86.50;;;;;;5075007;28;20060;-43
2022/04/26 06:24:49;;;;;;;15.43;5.97;;;9.60;85.90;;;;;;5059159;28;20028;-43
2022/04/26 06:27:17;;;;;;;10.73;5.95;;;9.60;85.90;;;;;;5071069;28;20684;-45
2022/04/26 06:29:44;;;;;;;9.85;5.65;;;9.60;86.20;;;;;;5073082;28;20029;-43
2022/04/26 06:32:11;;;;;;;15.70;6.40;;;9.70;86.30;;;;;;5058966;28;20020;-48
2022/04/26 06:34:38;;;;;;;8.82;5.07;;;9.80;86.00;;;;;;5074835;28;20020;-43
2022/04/26 06:37:04;;;;;;;12.65;5.22;;;9.60;85.40;;;;;;5076566;28;20405;-45
2022/04/26 06:39:31;;;;;;;20.45;6.22;;;9.80;85.90;;;;;;5056781;28;20047;-44
2022/04/26 06:41:57;;;;;;;14.07;5.10;;;9.90;85.50;;;;;;5073826;28;20394;-45
2022/04/26 06:44:25;;;;;;;13.20;5.25;;;9.90;84.30;;;;;;5074135;28;20174;-46
2022/04/26 06:46:53;;;;;;;14.88;4.68;;;9.80;84.20;;;;;;5073376;28;20108;-46
2022/04/26 06:49:21;;;;;;;14.63;6.50;;;9.70;84.40;;;;;;5074249;28;20134;-44
2022/04/26 06:51:50;;;;;;;12.90;4.57;;;9.70;84.10;;;;;;5056652;28;20035;-44
2022/04/26 06:54:17;;;;;;;18.50;5.65;;;9.60;84.10;;;;;;5058163;28;20024;-45
2022/04/26 06:56:46;;;;;;;10.15;4.88;;;9.60;84.50;;;;;;5074907;28;20033;-47
2022/04/26 06:59:13;;;;;;;8.32;5.07;;;9.70;84.70;;;;;;5076359;28;20051;-44
2022/04/26 07:01:40;;;;;;;11.50;5.00;;;9.70;84.10;;;;;;5073853;28;20025;-43
2022/04/26 07:04:07;;;;;;;10.43;4.35;;;9.90;84.10;;;;;;5075778;28;20040;-46
2022/04/26 07:06:34;;;;;;;8.63;5.03;;;10.00;83.70;;;;;;5055811;28;20020;-48
2022/04/26 07:09:03;;;;;;;12.55;5.03;;;10.20;82.50;;;;;;5075919;28;20043;-45
2022/04/26 07:11:30;;;;;;;13.70;4.82;;;10.40;82.50;;;;;;5072109;28;20051;-47
2022/04/26 07:13:57;;;;;;;8.35;4.05;;;10.50;81.90;;;;;;5075715;28;20032;-45
2022/04/26 07:16:24;;;;;;;26.05;6.57;;;10.50;81.00;;;;;;5073917;28;20032;-46
2022/04/26 07:18:51;;;;;;;8.93;4.78;;;10.50;80.60;;;;;;5075785;28;20382;-45
2022/04/26 07:21:18;;;;;;;11.05;4.05;;;10.40;80.90;;;;;;5073780;28;20031;-45
2022/04/26 07:23:44;;;;;;;9.57;3.92;;;10.40;80.70;;;;;;5075722;28;20455;-45
2022/04/26 07:26:10;;;;;;;12.07;4.40;;;10.50;80.50;;;;;;5052548;28;20029;-45
2022/04/26 07:28:36;;;;;;;10.15;4.28;;;10.50;80.20;;;;;;5051225;28;20026;-43
2022/04/26 07:31:04;;;;;;;14.27;5.00;;;10.60;80.20;;;;;;5054413;28;20044;-45
2022/04/26 07:36:19;;;;;;;13.20;4.30;;;10.40;79.80;;;;;;5073589;28;20438;-45
2022/04/26 07:38:46;;;;;;;;;;;10.60;80.60;;;;;;5056876;28;20078;-44
2022/04/26 07:41:13;;;;;;;14.52;4.53;;;10.90;79.20;;;;;;5091200;28;19947;-45
2022/04/26 07:43:41;;;;;;;11.27;4.32;;;11.10;78.50;;;;;;5055548;28;20497;-45
2022/04/26 07:46:09;;;;;;;9.98;3.42;;;11.20;78.40;;;;;;5074096;28;20025;-48
2022/04/26 07:48:39;;;;;;;9.68;3.72;;;11.20;77.00;;;;;;5073400;28;20434;-45
2022/04/26 07:51:04;;;;;;;18.98;4.22;;;11.40;76.60;;;;;;5074994;28;20128;-45
2022/04/26 07:53:31;;;;;;;13.07;4.57;;;11.20;76.40;;;;;;5073257;28;20119;-50
2022/04/26 07:55:58;;;;;;;12.60;3.88;;;11.20;76.80;;;;;;5075301;28;20039;-44
2022/04/26 07:58:29;;;;;;;10.95;3.60;;;11.30;77.10;;;;;;5056122;28;20036;-47
2022/04/26 08:00:59;;;;;;;7.25;3.67;;;11.60;75.70;;;;;;5057219;28;20066;-46
2022/04/26 08:03:28;;;;;;;9.73;3.58;;;11.90;74.70;;;;;;5072958;28;21498;-46
2022/04/26 08:05:54;;;;;;;10.02;3.45;;;12.40;72.80;;;;;;5057406;28;20056;-45
2022/04/26 08:08:21;;;;;;;8.38;3.55;;;12.70;71.60;;;;;;5054014;28;20021;-49
2022/04/26 08:10:49;;;;;;;11.68;3.95;;;12.90;70.30;;;;;;5050338;28;20026;-48
2022/04/26 08:13:16;;;;;;;13.73;3.90;;;12.80;69.50;;;;;;5034700;28;20031;-47
2022/04/26 08:15:45;;;;;;;12.30;3.30;;;13.10;70.20;;;;;;5073961;28;20032;-48
2022/04/26 08:18:13;;;;;;;10.85;3.67;;;13.40;69.00;;;;;;5071368;28;20364;-45
2022/04/26 08:20:38;;;;;;;9.95;4.03;;;13.50;67.70;;;;;;5056754;28;20032;-47
2022/04/26 08:23:08;;;;;;;14.43;4.10;;;13.50;68.40;;;;;;5071670;28;20395;-48
2022/04/26 08:28:19;;;;;;;8.40;3.13;;;13.20;68.10;;;;;;5072978;28;20062;-45
2022/04/26 08:30:46;;;;;;;12.23;4.07;;;13.40;66.90;;;;;;5074304;28;20429;-45
2022/04/26 08:33:12;;;;;;;9.23;4.07;;;13.50;66.20;;;;;;5072024;28;20139;-47
2022/04/26 08:35:39;;;;;;;9.45;3.50;;;13.40;67.40;;;;;;5074303;28;20116;-46
2022/04/26 08:38:04;;;;;;;7.80;3.22;;;13.40;66.50;;;;;;5073952;28;20043;-46
2022/04/26 08:40:31;;;;;;;8.73;3.45;;;13.70;66.30;;;;;;5070881;28;20033;-47
2022/04/26 08:42:59;;;;;;;11.23;3.78;;;13.60;65.20;;;;;;5071051;28;20093;-46
2022/04/26 08:45:25;;;;;;;10.20;3.33;;;13.60;66.50;;;;;;5073779;28;20052;-48
2022/04/26 08:53:21;;;;;;;8.63;3.35;;;13.90;62.70;;;;;;5033577;28;20041;-45
2022/04/26 08:55:49;;;;;;;15.07;3.08;;;13.20;65.80;;;;;;5034473;28;20037;-47
2022/04/26 08:58:18;;;;;;;10.15;3.88;;;12.90;67.30;;;;;;5066036;28;20030;-48
2022/04/26 09:01:05;;;;;;;10.95;4.18;;;12.90;67.10;;;;;;5066074;28;20095;-46
2022/04/26 09:03:32;;;;;;;12.82;3.38;;;13.20;66.60;;;;;;5032875;28;20481;-45
2022/04/26 09:06:21;;;;;;;11.98;3.75;;;13.40;66.60;;;;;;5032569;28;20446;-49
2022/04/26 09:08:53;;;;;;;7.55;3.40;;;13.30;65.80;;;;;;5030929;28;20025;-45
2022/04/26 09:11:27;;;;;;;7.35;3.28;;;13.40;63.70;;;;;;5032885;28;20084;-45
2022/04/26 09:13:52;;;;;;;11.98;3.65;;;13.30;65.80;;;;;;5033057;28;20034;-45
2022/04/26 09:16:21;;;;;;;9.73;2.95;;;13.40;64.50;;;;;;5033505;28;20630;-48
2022/04/26 09:18:52;;;;;;;8.77;3.35;;;13.90;64.60;;;;;;5032980;28;20032;-46
2022/04/26 09:21:19;;;;;;;12.07;3.65;;;14.60;64.90;;;;;;5033537;28;20226;-45
2022/04/26 09:23:47;;;;;;;7.22;3.13;;;14.40;61.90;;;;;;5032891;28;20027;-46
2022/04/26 09:26:16;;;;;;;7.78;3.15;;;14.40;62.90;;;;;;5033587;28;20452;-46
2022/04/26 09:28:44;;;;;;;9.95;3.35;;;14.30;61.90;;;;;;5064826;28;20409;-47
2022/04/26 09:31:30;;;;;;;9.60;3.40;;;14.40;60.40;;;;;;5033410;28;20021;-47
2022/04/26 09:34:04;;;;;;;6.38;3.20;;;14.60;60.90;;;;;;5032843;28;20026;-46
2022/04/26 09:36:41;;;;;;;10.48;2.55;;;14.90;60.50;;;;;;5033484;28;20052;-47
2022/04/26 09:39:09;;;;;;;10.18;4.25;;;14.80;61.00;;;;;;5027993;28;20045;-45
2022/04/26 09:41:37;;;;;;;7.25;3.58;;;14.90;61.50;;;;;;5013530;28;20134;-45
2022/04/26 09:44:08;;;;;;;8.45;3.10;;;14.20;61.70;;;;;;5018579;28;20160;-45
2022/04/26 09:46:43;;;;;;;7.40;3.10;;;13.60;62.60;;;;;;5037428;28;20018;-45
2022/04/26 09:49:14;;;;;;;8.60;4.07;;;13.20;64.80;;;;;;5039041;28;20017;-45
2022/04/26 09:51:41;;;;;;;7.22;3.53;;;12.70;64.10;;;;;;5077153;28;20028;-45
2022/04/26 09:54:07;;;;;;;9.98;4.00;;;12.50;66.90;;;;;;5075475;28;20035;-48
2022/04/26 09:56:34;;;;;;;11.20;4.82;;;12.20;67.30;;;;;;5077643;28;20103;-47
2022/04/26 09:59:07;;;;;;;11.30;4.28;;;12.20;67.80;;;;;;5055171;28;20021;-45
2022/04/26 10:01:55;;;;;;;8.88;3.33;;;12.10;68.50;;;;;;5075445;28;20029;-45
2022/04/26 10:04:25;;;;;;;13.75;4.60;;;12.20;68.10;;;;;;5072846;28;20360;-46
2022/04/26 10:07:00;;;;;;;8.60;3.65;;;12.20;68.30;;;;;;5076324;28;20056;-46
2022/04/26 10:09:27;;;;;;;9.77;3.80;;;12.10;66.10;;;;;;5075525;28;20099;-45
2022/04/26 10:12:01;;;;;;;10.57;3.47;;;12.30;66.70;;;;;;5076709;28;20135;-48
2022/04/26 10:14:32;;;;;;;9.90;3.30;;;13.20;65.70;;;;;;5074472;28;20349;-46
2022/04/26 10:16:59;;;;;;;12.65;4.07;;;13.30;63.90;;;;;;5076453;28;20075;-45
2022/04/26 10:19:45;;;;;;;7.10;3.55;;;12.90;63.60;;;;;;5086918;28;20116;-45
2022/04/26 10:22:14;;;;;;;10.98;3.50;;;12.70;64.80;;;;;;5039012;28;20029;-46
2022/04/26 10:25:08;;;;;;;9.18;3.28;;;12.30;65.00;;;;;;5051288;28;20036;-45
2022/04/26 10:27:34;;;;;;;13.73;3.67;;;12.90;65.70;;;;;;5092159;28;20021;-44
2022/04/26 10:30:00;;;;;;;7.70;2.92;;;12.90;65.30;;;;;;5075066;28;20029;-46
2022/04/26 10:32:40;;;;;;;7.32;2.83;;;12.40;65.20;;;;;;5058769;28;20464;-45
2022/04/26 10:35:30;;;;;;;11.60;3.28;;;12.50;66.20;;;;;;5074997;28;20024;-45
2022/04/26 10:38:16;;;;;;;16.83;3.25;;;12.40;66.50;;;;;;5062751;28;20033;-47
2022/04/26 10:41:07;;;;;;;7.20;2.92;;;12.50;66.90;;;;;;5038896;28;20064;-45
2022/04/26 10:43:37;;;;;;;7.65;3.03;;;12.60;66.30;;;;;;5059620;28;20017;-45
2022/04/26 10:46:24;;;;;;;11.00;3.22;;;12.60;65.70;;;;;;5076262;28;20040;-45
2022/04/26 10:48:53;;;;;;;10.45;2.92;;;12.70;66.00;;;;;;5074968;28;20021;-46
2022/04/26 10:51:36;;;;;;;6.75;3.25;;;12.50;64.20;;;;;;5075905;28;20029;-45
2022/04/26 10:54:03;;;;;;;9.82;4.03;;;12.80;65.20;;;;;;5073292;28;20381;-45
2022/04/26 10:56:30;;;;;;;6.60;3.13;;;13.20;63.90;;;;;;5075476;28;20036;-45
2022/04/26 10:58:57;;;;;;;10.63;3.00;;;12.80;64.00;;;;;;5057055;28;20037;-45
2022/04/26 11:01:27;;;;;;;9.30;3.42;;;12.90;64.40;;;;;;5041591;28;20113;-45
2022/04/26 11:03:57;;;;;;;9.25;3.40;;;12.70;64.10;;;;;;5057201;28;20062;-45
2022/04/26 11:06:39;;;;;;;8.88;2.80;;;12.50;64.80;;;;;;5075898;28;20120;-47
2022/04/26 11:09:11;;;;;;;12.07;3.50;;;13.30;63.90;;;;;;5074292;28;20109;-45
2022/04/26 11:11:54;;;;;;;9.88;3.50;;;13.80;62.20;;;;;;5075876;28;20017;-47
2022/04/26 11:14:22;;;;;;;9.02;2.88;;;14.20;60.60;;;;;;5090024;28;20029;-46
2022/04/26 11:16:59;;;;;;;8.48;3.05;;;14.00;60.10;;;;;;5075741;28;20036;-45
2022/04/26 11:19:36;;;;;;;7.75;3.70;;;14.20;61.80;;;;;;5074457;28;20028;-46
2022/04/26 11:22:05;;;;;;;13.07;3.58;;;14.10;59.50;;;;;;5075732;28;20460;-45
2022/04/26 11:30:05;;;;;;;7.00;3.55;;;14.00;59.70;;;;;;5074158;28;20056;-45
2022/04/26 11:32:38;;;;;;;9.23;3.20;;;13.30;63.30;;;;;;5075816;28;20047;-47
2022/04/26 11:35:06;;;;;;;8.07;3.13;;;13.80;62.50;;;;;;5073807;28;20651;-47
2022/04/26 11:37:42;;;;;;;7.85;3.58;;;13.90;64.10;;;;;;5075275;28;20107;-46
2022/04/26 11:40:10;;;;;;;9.02;4.03;;;14.10;60.50;;;;;;5054374;28;20029;-47
2022/04/26 11:42:37;;;;;;;7.65;3.35;;;13.90;61.40;;;;;;5075314;28;20043;-45
2022/04/26 11:45:07;;;;;;;9.73;3.50;;;14.00;63.30;;;;;;5072649;28;20020;-46
2022/04/26 11:47:48;;;;;;;6.93;3.13;;;13.60;59.50;;;;;;5057130;28;20453;-47
2022/04/26 11:50:26;;;;;;;6.25;2.55;;;13.70;61.90;;;;;;5072104;28;20060;-45
2022/04/26 11:53:09;;;;;;;6.95;2.97;;;13.60;61.80;;;;;;5072564;28;20045;-47
2022/04/26 11:55:45;;;;;;;8.20;3.80;;;13.60;63.30;;;;;;5072312;28;20024;-46
2022/04/26 11:58:30;;;;;;;10.23;3.35;;;13.80;60.80;;;;;;5073371;28;20025;-46
2022/04/26 12:01:11;;;;;;;8.90;2.75;;;13.70;59.40;;;;;;5074908;28;20021;-45
2022/04/26 12:03:49;;;;;;;13.77;3.97;;;13.40;62.20;;;;;;5073504;28;20071;-46
2022/04/26 12:06:28;;;;;;;10.07;3.10;;;13.20;62.80;;;;;;5074297;28;20039;-45
2022/04/26 12:08:57;;;;;;;5.93;3.00;;;12.90;63.30;;;;;;5073195;28;20034;-46
2022/04/26 12:11:44;;;;;;;9.25;3.33;;;13.20;65.00;;;;;;5073584;28;20063;-46
2022/04/26 12:14:16;;;;;;;7.00;2.97;;;13.60;63.70;;;;;;5072594;28;20524;-45
2022/04/26 12:16:56;;;;;;;8.60;2.58;;;13.90;62.40;;;;;;5074579;28;20093;-45
2022/04/26 12:19:36;;;;;;;9.35;3.47;;;13.80;62.50;;;;;;5072775;28;20395;-45
2022/04/26 12:22:05;;;;;;;10.60;3.58;;;13.70;60.10;;;;;;5074312;28;20036;-46
2022/04/26 12:24:43;;;;;;;10.82;3.17;;;13.40;61.70;;;;;;5072136;28;20318;-47
2022/04/26 12:27:14;;;;;;;9.93;2.97;;;13.50;61.00;;;;;;5074525;28;20433;-47
2022/04/26 12:29:43;;;;;;;8.60;2.95;;;13.70;62.90;;;;;;5055333;28;20112;-46
2022/04/26 12:32:16;;;;;;;6.45;2.60;;;13.90;61.50;;;;;;5074319;28;20024;-45
2022/04/26 12:34:55;;;;;;;8.60;3.45;;;13.80;63.30;;;;;;5072598;28;20028;-45
2022/04/26 12:37:31;;;;;;;8.90;2.90;;;13.60;61.80;;;;;;5074243;28;20036;-46
2022/04/26 12:40:06;;;;;;;7.18;2.67;;;13.30;61.80;;;;;;5071772;28;20029;-47
2022/04/26 12:42:54;;;;;;;10.68;3.70;;;12.90;62.60;;;;;;5073924;28;20029;-45
2022/04/26 12:45:23;;;;;;;10.05;2.63;;;13.20;63.70;;;;;;5072300;28;20449;-47
2022/04/26 12:50:56;;;;;;;8.52;2.30;;;12.90;64.30;;;;;;5073424;28;20047;-45
2022/04/26 12:53:43;;;;;;;7.20;2.80;;;12.90;62.80;;;;;;5073011;28;20565;-48
2022/04/26 12:56:11;;;;;;;11.23;3.22;;;13.00;62.00;;;;;;5036732;28;20045;-47
2022/04/26 12:58:40;;;;;;;7.70;3.17;;;12.80;62.00;;;;;;5053915;28;20029;-47
2022/04/26 13:01:11;;;;;;;7.77;3.43;;;12.70;62.40;;;;;;5056459;28;20028;-45
2022/04/26 13:03:38;;;;;;;14.27;3.65;;;12.80;64.80;;;;;;5067101;28;20115;-47
2022/04/26 13:06:24;;;;;;;7.55;3.95;;;12.70;64.20;;;;;;5073631;28;20421;-45
2022/04/26 13:08:54;;;;;;;10.18;3.10;;;12.70;63.10;;;;;;5072031;28;20036;-44
2022/04/26 13:11:21;;;;;;;8.45;3.63;;;12.50;64.30;;;;;;5073695;28;20099;-46
2022/04/26 13:13:49;;;;;;;6.00;2.97;;;12.60;65.50;;;;;;5071663;28;20167;-47
2022/04/26 13:16:17;;;;;;;7.13;3.05;;;12.90;65.90;;;;;;5073146;28;20032;-49
2022/04/26 13:18:45;;;;;;;7.40;3.05;;;13.10;64.20;;;;;;5071310;28;20034;-44
2022/04/26 13:21:13;;;;;;;10.23;3.33;;;13.00;62.60;;;;;;5073376;28;20110;-45
2022/04/26 13:23:41;;;;;;;7.38;3.08;;;13.00;63.50;;;;;;5071837;28;20749;-46
2022/04/26 13:26:09;;;;;;;7.70;3.17;;;13.10;63.20;;;;;;5073397;28;20037;-45
2022/04/26 13:28:35;;;;;;;5.32;2.33;;;13.20;64.60;;;;;;5071912;28;20024;-48
2022/04/26 13:31:01;;;;;;;9.68;3.20;;;13.30;62.90;;;;;;5073710;28;20455;-47
2022/04/26 13:33:27;;;;;;;9.60;2.90;;;13.10;61.20;;;;;;5054321;28;20528;-45
2022/04/26 13:35:56;;;;;;;7.88;2.80;;;13.00;62.50;;;;;;5073442;28;20043;-47
2022/04/26 13:38:24;;;;;;;7.93;2.40;;;13.10;63.10;;;;;;5069306;28;20037;-45
2022/04/26 13:40:53;;;;;;;8.20;2.83;;;13.20;63.00;;;;;;5073174;28;20166;-45
2022/04/26 13:43:23;;;;;;;7.72;3.13;;;13.20;62.50;;;;;;5071438;28;20027;-46
2022/04/26 13:45:51;;;;;;;6.63;2.85;;;13.00;62.90;;;;;;5073219;28;20021;-46
2022/04/26 13:48:17;;;;;;;9.82;3.10;;;12.40;63.30;;;;;;5071899;28;20028;-45
2022/04/26 13:50:46;;;;;;;6.45;2.67;;;12.40;64.80;;;;;;5072868;28;20045;-45
2022/04/26 13:53:12;;;;;;;5.85;3.67;;;12.40;65.30;;;;;;5053710;28;20032;-45
2022/04/26 13:55:38;;;;;;;9.65;2.90;;;12.30;65.10;;;;;;5055592;28;20093;-44
2022/04/26 13:58:09;;;;;;;5.60;3.20;;;12.40;63.40;;;;;;5071883;28;20411;-45
2022/04/26 14:00:36;;;;;;;5.65;2.53;;;12.40;64.90;;;;;;5070358;28;20520;-46
2022/04/26 14:03:04;;;;;;;7.78;3.53;;;12.50;64.40;;;;;;5073125;28;20035;-46
2022/04/26 14:05:33;;;;;;;10.38;3.22;;;12.20;65.60;;;;;;5072355;28;20039;-47
2022/04/26 14:08:00;;;;;;;8.90;3.10;;;12.10;65.90;;;;;;5055161;28;20017;-44
2022/04/26 14:10:26;;;;;;;8.35;3.47;;;12.40;64.20;;;;;;5071187;28;20333;-45
2022/04/26 14:12:55;;;;;;;5.93;3.13;;;12.20;64.10;;;;;;5072664;28;20087;-47
2022/04/26 14:23:37;;;;;;;10.73;3.13;;;12.40;65.50;;;;;;5072443;28;20055;-45
2022/04/26 14:26:04;;;;;;;9.15;3.13;;;12.60;64.70;;;;;;5069996;28;20087;-44
2022/04/26 14:28:32;;;;;;;6.43;2.67;;;12.60;65.20;;;;;;5072804;28;20039;-46
2022/04/26 14:30:59;;;;;;;10.25;2.80;;;12.70;64.60;;;;;;5071058;28;20020;-44
2022/04/26 14:33:26;;;;;;;10.38;2.95;;;12.70;64.40;;;;;;5076777;28;20028;-46
2022/04/26 14:35:54;;;;;;;5.65;2.30;;;12.40;64.60;;;;;;5073838;28;20504;-44
2022/04/26 14:38:20;;;;;;;9.60;2.65;;;12.00;64.90;;;;;;5042348;28;20040;-46
2022/04/26 14:40:47;;;;;;;7.03;3.10;;;11.90;64.80;;;;;;5074912;28;20032;-45
2022/04/26 14:43:14;;;;;;;7.57;2.90;;;11.80;65.20;;;;;;5058837;28;20040;-45
2022/04/26 14:45:44;;;;;;;8.10;2.70;;;11.70;65.30;;;;;;5074458;28;20033;-48
2022/04/26 14:48:14;;;;;;;8.63;2.97;;;11.60;65.20;;;;;;5076139;28;20044;-45
2022/04/26 14:50:40;;;;;;;7.45;2.80;;;11.70;64.30;;;;;;5073965;28;20446;-44
2022/04/26 14:53:07;;;;;;;7.82;2.92;;;11.90;65.20;;;;;;5076051;28;20024;-46
2022/04/26 14:55:33;;;;;;;5.68;2.25;;;11.90;62.30;;;;;;5074442;28;20444;-46
2022/04/26 14:58:01;;;;;;;6.47;2.40;;;11.50;62.90;;;;;;5076254;28;20029;-45
2022/04/26 15:00:27;;;;;;;5.00;2.42;;;11.50;64.20;;;;;;5075316;28;20048;-50
2022/04/26 15:02:54;;;;;;;6.80;2.85;;;11.80;62.60;;;;;;5075930;28;20438;-45
2022/04/26 15:05:23;;;;;;;7.85;3.45;;;11.70;61.70;;;;;;5071740;28;20514;-44
2022/04/26 15:10:35;;;;;;;7.70;2.53;;;12.00;63.30;;;;;;5072566;28;20120;-45
2022/04/26 15:18:32;;;;;;;10.13;5.00;;;12.10;62.20;;;;;;5072802;28;20369;-45
2022/04/26 15:20:59;;;;;;;7.20;2.67;;;12.00;63.10;;;;;;5057881;28;20024;-45
2022/04/26 15:23:28;;;;;;;15.00;8.35;;;11.90;63.40;;;;;;5055617;28;20051;-45
2022/04/26 15:25:55;;;;;;;8.68;3.60;;;11.90;63.60;;;;;;5075734;28;20021;-45
2022/04/26 15:28:23;;;;;;;10.13;2.78;;;11.80;64.20;;;;;;5073865;28;20020;-46
2022/04/26 15:30:50;;;;;;;8.65;3.15;;;11.80;62.50;;;;;;5075541;28;20429;-45
2022/04/26 15:33:22;;;;;;;4.80;2.45;;;11.50;64.30;;;;;;5073873;28;20449;-46
2022/04/26 15:35:51;;;;;;;7.03;2.95;;;11.60;65.90;;;;;;5075554;28;20033;-47
2022/04/26 15:38:18;;;;;;;10.80;3.42;;;11.70;64.80;;;;;;5072724;28;20625;-45
2022/04/26 15:40:46;;;;;;;6.32;3.05;;;11.80;66.30;;;;;;5057503;28;20039;-48
2022/04/26 15:43:15;;;;;;;9.30;3.00;;;11.80;66.10;;;;;;5072824;28;20025;-48
2022/04/26 15:45:43;;;;;;;6.47;3.15;;;11.90;65.50;;;;;;5074402;28;20408;-49
2022/04/26 15:48:11;;;;;;;13.80;3.25;;;12.10;66.30;;;;;;5073552;28;20040;-45
2022/04/26 15:50:40;;;;;;;9.68;3.42;;;11.90;64.10;;;;;;5074877;28;20114;-46
2022/04/26 15:53:07;;;;;;;8.68;3.03;;;11.60;64.90;;;;;;5073467;28;20055;-46
2022/04/26 15:55:34;;;;;;;5.18;2.67;;;11.40;65.40;;;;;;5075384;28;20342;-45
2022/04/26 15:58:00;;;;;;;8.05;2.83;;;11.20;67.00;;;;;;5073641;28;20021;-47
2022/04/26 16:00:29;;;;;;;7.53;2.35;;;11.40;66.80;;;;;;5073595;28;20028;-48
2022/04/26 16:02:55;;;;;;;7.15;2.92;;;11.50;66.70;;;;;;5074988;28;20028;-44
2022/04/26 16:05:21;;;;;;;8.27;2.97;;;11.40;65.50;;;;;;5054987;28;20032;-46
2022/04/26 16:07:51;;;;;;;7.03;2.67;;;11.40;66.30;;;;;;5057348;28;20037;-48
2022/04/26 16:21:25;;;;;;;7.13;3.80;;;11.70;65.50;;;;;;5074757;28;20036;-45
2022/04/26 16:23:54;;;;;;;7.68;3.05;;;11.70;67.10;;;;;;5072421;28;20028;-48
2022/04/26 16:26:22;;;;;;;6.35;2.85;;;11.70;67.20;;;;;;5074274;28;20032;-46
2022/04/26 16:28:51;;;;;;;7.03;3.55;;;11.60;66.60;;;;;;5040124;28;20030;-46
2022/04/26 16:31:19;;;;;;;7.88;3.83;;;11.50;65.50;;;;;;5034359;28;20024;-48
2022/04/26 16:33:45;;;;;;;7.70;3.45;;;11.50;66.50;;;;;;5064932;28;20028;-44
2022/04/26 16:36:15;;;;;;;7.03;2.50;;;11.60;66.30;;;;;;5074232;28;20025;-50
2022/04/26 16:38:42;;;;;;;10.68;2.83;;;11.50;65.80;;;;;;5072819;28;20456;-49
2022/04/26 16:41:11;;;;;;;11.32;2.83;;;11.40;66.90;;;;;;5074103;28;20032;-45
2022/04/26 16:43:39;;;;;;;5.57;2.70;;;11.30;67.00;;;;;;5070220;28;20075;-46
2022/04/26 16:46:04;;;;;;;4.65;2.25;;;11.20;67.90;;;;;;5073949;28;20078;-46
2022/04/26 16:48:30;;;;;;;8.35;3.35;;;11.20;67.40;;;;;;5071370;28;20033;-50
2022/04/26 16:50:57;;;;;;;10.02;6.80;;;11.10;67.70;;;;;;5073620;28;20055;-48
2022/04/26 16:53:23;;;;;;;8.60;4.88;;;11.00;67.90;;;;;;5071852;28;20028;-47
2022/04/26 16:55:52;;;;;;;6.43;2.63;;;11.00;68.90;;;;;;5073838;28;20445;-46
2022/04/26 16:58:18;;;;;;;9.60;3.60;;;10.90;68.20;;;;;;5070333;28;20048;-47
2022/04/26 17:00:46;;;;;;;8.30;2.90;;;10.90;68.30;;;;;;5056127;28;20028;-51
2022/04/26 17:03:15;;;;;;;5.35;3.75;;;10.80;68.90;;;;;;5054421;28;20058;-50
2022/04/26 17:05:48;;;;;;;9.68;2.63;;;10.80;69.60;;;;;;5073270;28;20013;-45
2022/04/26 17:08:16;;;;;;;8.25;2.75;;;10.80;69.40;;;;;;5072375;28;20024;-47
2022/04/26 17:10:47;;;;;;;7.20;2.60;;;10.70;68.60;;;;;;5089598;28;20031;-48
2022/04/26 17:13:15;;;;;;;4.10;2.30;;;10.60;68.40;;;;;;5072093;28;20028;-45
2022/04/26 17:15:44;;;;;;;8.35;2.53;;;10.60;69.40;;;;;;5070860;28;20028;-47
2022/04/26 17:18:14;;;;;;;4.53;2.20;;;10.60;69.10;;;;;;5073827;28;20036;-44
2022/04/26 17:20:41;;;;;;;8.60;2.80;;;10.40;69.60;;;;;;5072058;28;20024;-45
2022/04/26 17:23:09;;;;;;;4.35;2.20;;;10.40;69.20;;;;;;5073285;28;20068;-48